sensor_id;sensor_type;location;lat;lon;timestamp;pressure;altitude;pressure_sealevel;temperature;humidity
60019;BME280;45870;42.528;26.740;2022-11-12T00:00:01;101034.47;;;13.60;61.30
60019;BME280;45870;42.528;26.740;2022-11-12T00:02:27;101029.63;;;13.86;60.66
60019;BME280;45870;42.528;26.740;2022-11-12T00:04:52;100992.78;;;13.54;60.63
60019;BME280;45870;42.528;26.740;2022-11-12T00:07:18;101038.94;;;14.15;59.43
60019;BME280;45870;42.528;26.740;2022-11-12T00:09:44;101044.34;;;13.72;60.40
60019;BME280;45870;42.528;26.740;2022-11-12T00:12:09;101046.28;;;13.90;59.82
60019;BME280;45870;42.528;26.740;2022-11-12T00:14:35;101036.94;;;14.11;58.56
60019;BME280;45870;42.528;26.740;2022-11-12T00:17:01;100843.41;;;12.81;58.84
60019;BME280;45870;42.528;26.740;2022-11-12T00:19:26;101039.22;;;14.32;58.15
60019;BME280;45870;42.528;26.740;2022-11-12T00:21:52;101027.94;;;14.10;58.43
60019;BME280;45870;42.528;26.740;2022-11-12T00:24:17;101025.59;;;13.71;59.11
60019;BME280;45870;42.528;26.740;2022-11-12T00:26:43;101032.38;;;14.05;58.30
60019;BME280;45870;42.528;26.740;2022-11-12T00:29:09;101005.22;;;13.62;58.83
60019;BME280;45870;42.528;26.740;2022-11-12T00:31:34;101030.50;;;14.05;57.57
60019;BME280;45870;42.528;26.740;2022-11-12T00:34:01;101008.91;;;14.35;56.45
60019;BME280;45870;42.528;26.740;2022-11-12T00:36:27;101028.84;;;14.22;57.12
60019;BME280;45870;42.528;26.740;2022-11-12T00:38:52;100969.94;;;13.62;58.18
60019;BME280;45870;42.528;26.740;2022-11-12T00:41:18;101019.28;;;13.77;58.87
60019;BME280;45870;42.528;26.740;2022-11-12T00:43:44;100994.25;;;13.75;57.98
60019;BME280;45870;42.528;26.740;2022-11-12T00:46:10;101019.19;;;14.08;57.70
60019;BME280;45870;42.528;26.740;2022-11-12T00:48:36;100985.56;;;13.66;58.49
60019;BME280;45870;42.528;26.740;2022-11-12T00:51:03;101021.88;;;13.65;59.02
60019;BME280;45870;42.528;26.740;2022-11-12T00:53:29;101015.72;;;13.51;59.21
60019;BME280;45870;42.528;26.740;2022-11-12T00:56:03;100992.47;;;13.87;57.74
60019;BME280;45870;42.528;26.740;2022-11-12T00:58:30;101002.44;;;14.11;58.05
60019;BME280;45870;42.528;26.740;2022-11-12T01:00:56;101007.63;;;13.94;58.48
60019;BME280;45870;42.528;26.740;2022-11-12T01:03:22;100959.94;;;13.37;59.10
60019;BME280;45870;42.528;26.740;2022-11-12T01:05:48;100948.31;;;13.30;59.70
60019;BME280;45870;42.528;26.740;2022-11-12T01:08:13;101002.34;;;13.57;59.77
60019;BME280;45870;42.528;26.740;2022-11-12T01:10:39;100994.56;;;13.85;59.34
60019;BME280;45870;42.528;26.740;2022-11-12T01:13:05;100989.75;;;13.62;59.94
60019;BME280;45870;42.528;26.740;2022-11-12T01:15:30;100980.47;;;13.94;58.32
60019;BME280;45870;42.528;26.740;2022-11-12T01:17:56;100957.13;;;13.50;59.07
60019;BME280;45870;42.528;26.740;2022-11-12T01:20:22;100970.84;;;13.56;59.18
60019;BME280;45870;42.528;26.740;2022-11-12T01:22:48;100948.03;;;13.63;57.90
60019;BME280;45870;42.528;26.740;2022-11-12T01:25:13;100943.06;;;14.15;56.51
60019;BME280;45870;42.528;26.740;2022-11-12T01:27:39;100969.19;;;14.52;55.69
60019;BME280;45870;42.528;26.740;2022-11-12T01:30:05;100958.22;;;14.88;54.45
60019;BME280;45870;42.528;26.740;2022-11-12T01:32:35;100963.44;;;14.06;56.76
60019;BME280;45870;42.528;26.740;2022-11-12T01:35:02;100995.25;;;14.41;56.20
60019;BME280;45870;42.528;26.740;2022-11-12T01:37:27;100967.28;;;13.98;56.82
60019;BME280;45870;42.528;26.740;2022-11-12T01:39:53;100803.09;;;13.34;55.84
60019;BME280;45870;42.528;26.740;2022-11-12T01:42:19;100959.00;;;13.93;57.04
60019;BME280;45870;42.528;26.740;2022-11-12T01:44:45;100954.91;;;13.84;57.34
60019;BME280;45870;42.528;26.740;2022-11-12T01:47:22;100978.94;;;14.41;56.28
60019;BME280;45870;42.528;26.740;2022-11-12T01:50:14;100959.47;;;13.65;57.14
60019;BME280;45870;42.528;26.740;2022-11-12T01:53:01;100983.31;;;14.24;56.77
60019;BME280;45870;42.528;26.740;2022-11-12T01:55:31;100955.16;;;14.00;57.02
60019;BME280;45870;42.528;26.740;2022-11-12T01:58:11;100986.06;;;14.72;54.75
60019;BME280;45870;42.528;26.740;2022-11-12T02:00:39;100968.44;;;14.45;55.78
60019;BME280;45870;42.528;26.740;2022-11-12T02:03:09;100984.97;;;14.43;55.81
60019;BME280;45870;42.528;26.740;2022-11-12T02:05:37;100980.44;;;14.37;55.36
60019;BME280;45870;42.528;26.740;2022-11-12T02:08:05;100953.84;;;13.67;57.51
60019;BME280;45870;42.528;26.740;2022-11-12T02:10:33;100850.03;;;13.35;55.65
60019;BME280;45870;42.528;26.740;2022-11-12T02:12:59;100930.50;;;14.02;55.50
60019;BME280;45870;42.528;26.740;2022-11-12T02:15:44;100947.16;;;14.24;54.54
60019;BME280;45870;42.528;26.740;2022-11-12T02:18:10;100961.72;;;13.93;56.14
60019;BME280;45870;42.528;26.740;2022-11-12T02:20:36;100977.72;;;14.56;54.85
60019;BME280;45870;42.528;26.740;2022-11-12T02:23:04;100885.41;;;13.65;55.24
60019;BME280;45870;42.528;26.740;2022-11-12T02:25:31;100971.31;;;14.14;54.90
60019;BME280;45870;42.528;26.740;2022-11-12T02:27:58;100982.78;;;14.82;53.29
60019;BME280;45870;42.528;26.740;2022-11-12T02:30:41;100980.38;;;13.65;55.93
60019;BME280;45870;42.528;26.740;2022-11-12T02:33:07;100981.78;;;14.28;54.67
60019;BME280;45870;42.528;26.740;2022-11-12T02:35:33;100968.22;;;14.10;54.71
60019;BME280;45870;42.528;26.740;2022-11-12T02:37:59;100973.03;;;14.63;53.12
60019;BME280;45870;42.528;26.740;2022-11-12T02:40:25;100970.78;;;14.41;53.84
60019;BME280;45870;42.528;26.740;2022-11-12T02:42:51;100940.00;;;13.75;54.89
60019;BME280;45870;42.528;26.740;2022-11-12T02:45:17;100954.25;;;14.43;53.21
60019;BME280;45870;42.528;26.740;2022-11-12T02:47:43;100958.44;;;14.57;52.61
60019;BME280;45870;42.528;26.740;2022-11-12T02:50:09;100992.03;;;14.26;54.04
60019;BME280;45870;42.528;26.740;2022-11-12T02:52:35;100988.38;;;15.28;51.73
60019;BME280;45870;42.528;26.740;2022-11-12T02:55:01;100993.34;;;14.90;52.39
60019;BME280;45870;42.528;26.740;2022-11-12T02:57:27;100986.94;;;15.26;51.34
60019;BME280;45870;42.528;26.740;2022-11-12T02:59:54;100942.69;;;15.07;51.35
60019;BME280;45870;42.528;26.740;2022-11-12T03:02:20;100984.53;;;16.06;49.71
60019;BME280;45870;42.528;26.740;2022-11-12T03:04:46;100961.31;;;14.92;52.36
60019;BME280;45870;42.528;26.740;2022-11-12T03:07:11;100996.38;;;14.82;52.98
60019;BME280;45870;42.528;26.740;2022-11-12T03:09:37;100945.56;;;15.35;50.89
60019;BME280;45870;42.528;26.740;2022-11-12T03:12:03;100976.00;;;15.44;50.56
60019;BME280;45870;42.528;26.740;2022-11-12T03:14:28;100991.03;;;16.16;49.82
60019;BME280;45870;42.528;26.740;2022-11-12T03:16:54;100997.25;;;15.35;51.58
60019;BME280;45870;42.528;26.740;2022-11-12T03:19:20;100997.06;;;15.48;51.33
60019;BME280;45870;42.528;26.740;2022-11-12T03:21:45;100973.47;;;15.31;51.50
60019;BME280;45870;42.528;26.740;2022-11-12T03:24:11;101000.41;;;15.21;51.88
60019;BME280;45870;42.528;26.740;2022-11-12T03:26:37;100994.88;;;15.69;50.95
60019;BME280;45870;42.528;26.740;2022-11-12T03:29:03;100964.91;;;15.04;52.57
60019;BME280;45870;42.528;26.740;2022-11-12T03:31:28;101007.16;;;15.71;51.37
60019;BME280;45870;42.528;26.740;2022-11-12T03:33:54;100932.38;;;14.97;52.47
60019;BME280;45870;42.528;26.740;2022-11-12T03:36:20;100976.09;;;14.96;53.45
60019;BME280;45870;42.528;26.740;2022-11-12T03:38:45;100998.63;;;15.56;51.77
60019;BME280;45870;42.528;26.740;2022-11-12T03:41:11;100980.13;;;14.93;53.22
60019;BME280;45870;42.528;26.740;2022-11-12T03:43:37;100998.03;;;15.13;53.46
60019;BME280;45870;42.528;26.740;2022-11-12T03:46:02;101006.31;;;15.18;53.89
60019;BME280;45870;42.528;26.740;2022-11-12T03:48:28;100845.16;;;14.58;52.84
60019;BME280;45870;42.528;26.740;2022-11-12T03:51:00;100982.41;;;15.96;51.26
60019;BME280;45870;42.528;26.740;2022-11-12T03:53:25;101008.72;;;14.96;54.47
60019;BME280;45870;42.528;26.740;2022-11-12T03:55:51;101017.88;;;15.02;54.73
60019;BME280;45870;42.528;26.740;2022-11-12T03:58:17;100943.06;;;14.15;55.78
60019;BME280;45870;42.528;26.740;2022-11-12T04:00:43;101020.13;;;15.05;54.99
60019;BME280;45870;42.528;26.740;2022-11-12T04:03:08;101027.56;;;14.79;56.13
60019;BME280;45870;42.528;26.740;2022-11-12T04:05:34;101026.38;;;14.57;56.92
60019;BME280;45870;42.528;26.740;2022-11-12T04:08:21;101026.25;;;14.70;56.84
60019;BME280;45870;42.528;26.740;2022-11-12T04:11:11;101030.69;;;14.46;58.28
60019;BME280;45870;42.528;26.740;2022-11-12T04:13:38;101020.69;;;14.04;59.19
60019;BME280;45870;42.528;26.740;2022-11-12T04:16:13;101020.59;;;13.92;60.58
60019;BME280;45870;42.528;26.740;2022-11-12T04:18:59;101025.81;;;13.69;60.96
60019;BME280;45870;42.528;26.740;2022-11-12T04:21:50;100956.84;;;13.34;60.84
60019;BME280;45870;42.528;26.740;2022-11-12T04:24:20;101024.22;;;14.47;59.24
60019;BME280;45870;42.528;26.740;2022-11-12T04:27:06;100989.44;;;13.52;60.93
60019;BME280;45870;42.528;26.740;2022-11-12T04:29:32;101015.97;;;14.18;59.90
60019;BME280;45870;42.528;26.740;2022-11-12T04:32:16;100940.94;;;13.37;60.98
60019;BME280;45870;42.528;26.740;2022-11-12T04:34:43;101036.25;;;14.33;59.46
60019;BME280;45870;42.528;26.740;2022-11-12T04:37:09;101000.34;;;14.13;59.48
60019;BME280;45870;42.528;26.740;2022-11-12T04:39:34;101024.06;;;14.42;59.36
60019;BME280;45870;42.528;26.740;2022-11-12T04:42:00;101035.88;;;14.30;59.04
60019;BME280;45870;42.528;26.740;2022-11-12T04:44:45;101029.09;;;14.57;58.28
60019;BME280;45870;42.528;26.740;2022-11-12T04:47:38;101033.09;;;14.73;57.91
60019;BME280;45870;42.528;26.740;2022-11-12T04:50:07;101039.22;;;14.68;58.21
60019;BME280;45870;42.528;26.740;2022-11-12T04:52:33;101045.44;;;14.39;59.28
60019;BME280;45870;42.528;26.740;2022-11-12T04:54:59;100972.81;;;14.28;58.35
60019;BME280;45870;42.528;26.740;2022-11-12T04:57:25;101056.22;;;14.45;59.02
60019;BME280;45870;42.528;26.740;2022-11-12T04:59:51;101053.63;;;14.87;58.08
60019;BME280;45870;42.528;26.740;2022-11-12T05:02:17;101060.97;;;14.07;60.06
60019;BME280;45870;42.528;26.740;2022-11-12T05:04:43;101058.53;;;13.99;60.45
60019;BME280;45870;42.528;26.740;2022-11-12T05:07:09;101058.94;;;14.45;59.63
60019;BME280;45870;42.528;26.740;2022-11-12T05:09:35;101068.81;;;14.58;59.34
60019;BME280;45870;42.528;26.740;2022-11-12T05:12:01;101010.50;;;13.99;60.18
60019;BME280;45870;42.528;26.740;2022-11-12T05:14:27;100977.66;;;13.15;61.71
60019;BME280;45870;42.528;26.740;2022-11-12T05:16:53;101062.34;;;14.16;60.38
60019;BME280;45870;42.528;26.740;2022-11-12T05:19:19;101079.81;;;14.02;61.22
60019;BME280;45870;42.528;26.740;2022-11-12T05:21:45;101077.38;;;13.94;61.06
60019;BME280;45870;42.528;26.740;2022-11-12T05:24:30;101079.22;;;14.00;61.12
60019;BME280;45870;42.528;26.740;2022-11-12T05:26:56;101079.38;;;14.48;60.01
60019;BME280;45870;42.528;26.740;2022-11-12T05:29:22;101087.38;;;14.18;60.82
60019;BME280;45870;42.528;26.740;2022-11-12T05:31:47;101086.19;;;13.65;62.89
60019;BME280;45870;42.528;26.740;2022-11-12T05:34:13;101086.22;;;13.83;62.15
60019;BME280;45870;42.528;26.740;2022-11-12T05:36:39;101083.56;;;14.01;62.02
60019;BME280;45870;42.528;26.740;2022-11-12T05:39:05;101095.72;;;13.74;62.96
60019;BME280;45870;42.528;26.740;2022-11-12T05:41:30;101091.75;;;14.19;61.48
60019;BME280;45870;42.528;26.740;2022-11-12T05:43:56;101097.25;;;14.37;61.10
60019;BME280;45870;42.528;26.740;2022-11-12T05:46:22;101100.28;;;14.23;61.40
60019;BME280;45870;42.528;26.740;2022-11-12T05:48:47;101094.84;;;14.23;61.04
60019;BME280;45870;42.528;26.740;2022-11-12T05:51:13;101045.91;;;13.62;61.81
60019;BME280;45870;42.528;26.740;2022-11-12T05:53:40;101118.75;;;13.65;63.08
60019;BME280;45870;42.528;26.740;2022-11-12T05:56:07;101115.47;;;14.06;61.87
60019;BME280;45870;42.528;26.740;2022-11-12T05:58:34;101123.97;;;14.40;61.18
60019;BME280;45870;42.528;26.740;2022-11-12T06:01:01;101118.38;;;14.11;61.92
60019;BME280;45870;42.528;26.740;2022-11-12T06:03:27;101094.91;;;14.16;61.13
60019;BME280;45870;42.528;26.740;2022-11-12T06:05:52;101127.53;;;14.59;60.16
60019;BME280;45870;42.528;26.740;2022-11-12T06:08:18;101104.00;;;14.28;60.68
60019;BME280;45870;42.528;26.740;2022-11-12T06:10:51;101109.63;;;13.52;63.31
60019;BME280;45870;42.528;26.740;2022-11-12T06:13:19;101118.97;;;14.13;61.54
60019;BME280;45870;42.528;26.740;2022-11-12T06:15:44;101136.94;;;14.14;61.91
60019;BME280;45870;42.528;26.740;2022-11-12T06:18:10;101135.28;;;14.37;60.88
60019;BME280;45870;42.528;26.740;2022-11-12T06:20:36;101132.50;;;14.19;61.81
60019;BME280;45870;42.528;26.740;2022-11-12T06:23:02;101136.16;;;14.07;61.93
60019;BME280;45870;42.528;26.740;2022-11-12T06:25:28;101124.41;;;14.13;61.75
60019;BME280;45870;42.528;26.740;2022-11-12T06:27:53;101058.09;;;13.77;61.67
60019;BME280;45870;42.528;26.740;2022-11-12T06:30:19;101128.47;;;14.04;62.29
60019;BME280;45870;42.528;26.740;2022-11-12T06:32:46;101083.91;;;14.29;60.40
60019;BME280;45870;42.528;26.740;2022-11-12T06:35:12;101139.47;;;14.94;59.11
60019;BME280;45870;42.528;26.740;2022-11-12T06:37:38;101084.28;;;13.90;61.40
60019;BME280;45870;42.528;26.740;2022-11-12T06:40:05;101144.91;;;14.76;60.25
60019;BME280;45870;42.528;26.740;2022-11-12T06:42:30;101148.06;;;14.55;60.79
60019;BME280;45870;42.528;26.740;2022-11-12T06:44:56;101140.75;;;14.74;59.48
60019;BME280;45870;42.528;26.740;2022-11-12T06:47:22;101139.22;;;14.41;61.02
60019;BME280;45870;42.528;26.740;2022-11-12T06:49:47;101136.59;;;14.89;59.77
60019;BME280;45870;42.528;26.740;2022-11-12T06:52:16;101136.28;;;14.97;59.07
60019;BME280;45870;42.528;26.740;2022-11-12T06:54:42;100955.16;;;14.19;59.20
60019;BME280;45870;42.528;26.740;2022-11-12T06:57:08;101136.75;;;14.76;59.99
60019;BME280;45870;42.528;26.740;2022-11-12T06:59:33;101135.28;;;15.10;59.15
60019;BME280;45870;42.528;26.740;2022-11-12T07:01:59;101137.03;;;14.68;60.23
60019;BME280;45870;42.528;26.740;2022-11-12T07:04:25;101130.44;;;14.39;60.85
60019;BME280;45870;42.528;26.740;2022-11-12T07:06:50;101133.66;;;14.30;61.51
60019;BME280;45870;42.528;26.740;2022-11-12T07:09:16;101134.78;;;14.83;60.42
60019;BME280;45870;42.528;26.740;2022-11-12T07:11:42;101140.13;;;15.26;59.29
60019;BME280;45870;42.528;26.740;2022-11-12T07:14:08;101133.56;;;15.16;59.12
60019;BME280;45870;42.528;26.740;2022-11-12T07:16:34;101113.50;;;14.80;59.32
60019;BME280;45870;42.528;26.740;2022-11-12T07:18:59;101124.75;;;15.02;59.15
60019;BME280;45870;42.528;26.740;2022-11-12T07:21:26;101134.41;;;14.80;59.64
60019;BME280;45870;42.528;26.740;2022-11-12T07:23:51;101115.59;;;14.96;59.64
60019;BME280;45870;42.528;26.740;2022-11-12T07:26:22;101108.44;;;14.84;59.75
60019;BME280;45870;42.528;26.740;2022-11-12T07:28:50;101140.75;;;15.58;57.98
60019;BME280;45870;42.528;26.740;2022-11-12T07:31:18;101092.38;;;14.21;61.13
60019;BME280;45870;42.528;26.740;2022-11-12T07:33:44;101127.56;;;14.77;60.67
60019;BME280;45870;42.528;26.740;2022-11-12T07:36:15;101124.19;;;15.12;59.67
60019;BME280;45870;42.528;26.740;2022-11-12T07:38:42;101122.66;;;15.34;59.04
60019;BME280;45870;42.528;26.740;2022-11-12T07:41:19;101131.31;;;15.13;59.69
60019;BME280;45870;42.528;26.740;2022-11-12T07:43:47;101129.00;;;15.10;60.45
60019;BME280;45870;42.528;26.740;2022-11-12T07:46:33;101136.03;;;14.99;60.60
60019;BME280;45870;42.528;26.740;2022-11-12T07:48:59;101135.91;;;14.94;60.53
60019;BME280;45870;42.528;26.740;2022-11-12T07:51:27;101138.63;;;15.12;59.67
60019;BME280;45870;42.528;26.740;2022-11-12T07:53:54;101144.28;;;14.92;60.16
60019;BME280;45870;42.528;26.740;2022-11-12T07:56:22;101140.66;;;15.46;59.28
60019;BME280;45870;42.528;26.740;2022-11-12T07:58:48;101112.75;;;14.30;62.00
60019;BME280;45870;42.528;26.740;2022-11-12T08:01:37;101140.13;;;15.08;61.09
60019;BME280;45870;42.528;26.740;2022-11-12T08:04:06;101134.47;;;15.58;58.90
60019;BME280;45870;42.528;26.740;2022-11-12T08:06:32;101140.19;;;15.68;59.26
60019;BME280;45870;42.528;26.740;2022-11-12T08:09:00;101132.19;;;15.96;58.88
60019;BME280;45870;42.528;26.740;2022-11-12T08:11:27;101121.38;;;15.78;58.18
60019;BME280;45870;42.528;26.740;2022-11-12T08:13:53;101147.63;;;16.48;57.82
60019;BME280;45870;42.528;26.740;2022-11-12T08:16:19;101152.16;;;15.78;58.59
60019;BME280;45870;42.528;26.740;2022-11-12T08:18:45;101156.09;;;15.82;58.25
60019;BME280;45870;42.528;26.740;2022-11-12T08:21:13;101149.16;;;16.68;55.65
60019;BME280;45870;42.528;26.740;2022-11-12T08:23:39;101161.25;;;16.37;56.55
60019;BME280;45870;42.528;26.740;2022-11-12T08:26:07;101161.84;;;16.50;56.88
60019;BME280;45870;42.528;26.740;2022-11-12T08:28:34;101155.59;;;16.62;56.16
60019;BME280;45870;42.528;26.740;2022-11-12T08:31:11;101166.63;;;16.67;55.35
60019;BME280;45870;42.528;26.740;2022-11-12T08:33:37;101162.88;;;17.76;53.43
60019;BME280;45870;42.528;26.740;2022-11-12T08:36:04;101166.78;;;15.66;58.53
60019;BME280;45870;42.528;26.740;2022-11-12T08:38:31;101169.34;;;15.90;57.94
60019;BME280;45870;42.528;26.740;2022-11-12T08:41:05;101129.50;;;15.36;58.59
60019;BME280;45870;42.528;26.740;2022-11-12T08:43:31;101163.88;;;15.79;57.89
60019;BME280;45870;42.528;26.740;2022-11-12T08:46:00;101170.19;;;15.91;58.22
60019;BME280;45870;42.528;26.740;2022-11-12T08:48:28;101153.47;;;15.87;57.48
60019;BME280;45870;42.528;26.740;2022-11-12T08:50:54;101168.25;;;16.68;56.40
60019;BME280;45870;42.528;26.740;2022-11-12T08:53:21;101173.59;;;16.39;56.55
60019;BME280;45870;42.528;26.740;2022-11-12T08:55:47;101171.94;;;16.73;56.61
60019;BME280;45870;42.528;26.740;2022-11-12T08:58:13;101159.59;;;16.82;54.68
60019;BME280;45870;42.528;26.740;2022-11-12T09:00:41;101177.13;;;16.75;56.31
60019;BME280;45870;42.528;26.740;2022-11-12T09:03:12;101154.41;;;16.81;56.10
60019;BME280;45870;42.528;26.740;2022-11-12T09:05:38;101104.63;;;16.74;55.39
60019;BME280;45870;42.528;26.740;2022-11-12T09:08:07;101155.91;;;17.28;55.46
60019;BME280;45870;42.528;26.740;2022-11-12T09:10:34;101171.13;;;17.24;56.50
60019;BME280;45870;42.528;26.740;2022-11-12T09:13:00;101170.41;;;16.66;57.37
60019;BME280;45870;42.528;26.740;2022-11-12T09:15:28;101163.00;;;16.20;59.25
60019;BME280;45870;42.528;26.740;2022-11-12T09:17:58;101157.25;;;16.39;56.41
60019;BME280;45870;42.528;26.740;2022-11-12T09:20:25;101140.63;;;16.41;56.26
60019;BME280;45870;42.528;26.740;2022-11-12T09:22:53;101162.34;;;16.59;56.49
60019;BME280;45870;42.528;26.740;2022-11-12T09:25:19;101164.31;;;16.40;56.83
60019;BME280;45870;42.528;26.740;2022-11-12T09:27:45;101168.28;;;17.59;54.93
60019;BME280;45870;42.528;26.740;2022-11-12T09:30:11;101154.28;;;16.76;56.25
60019;BME280;45870;42.528;26.740;2022-11-12T09:32:36;101169.63;;;17.05;55.08
60019;BME280;45870;42.528;26.740;2022-11-12T09:35:02;101168.59;;;16.94;56.36
60019;BME280;45870;42.528;26.740;2022-11-12T09:37:28;101165.94;;;17.11;56.22
60019;BME280;45870;42.528;26.740;2022-11-12T09:39:54;101161.91;;;17.42;55.44
60019;BME280;45870;42.528;26.740;2022-11-12T09:42:21;101160.16;;;17.76;54.27
60019;BME280;45870;42.528;26.740;2022-11-12T09:44:56;101161.00;;;16.96;55.94
60019;BME280;45870;42.528;26.740;2022-11-12T09:47:41;101141.25;;;17.74;54.20
60019;BME280;45870;42.528;26.740;2022-11-12T09:50:31;101176.72;;;17.86;53.90
60019;BME280;45870;42.528;26.740;2022-11-12T09:53:23;101172.34;;;17.57;55.13
60019;BME280;45870;42.528;26.740;2022-11-12T09:55:51;101124.53;;;16.28;56.35
60019;BME280;45870;42.528;26.740;2022-11-12T09:58:18;101156.50;;;16.44;56.81
60019;BME280;45870;42.528;26.740;2022-11-12T10:00:56;101174.09;;;17.23;55.41
60019;BME280;45870;42.528;26.740;2022-11-12T10:06:09;101173.44;;;16.34;57.04
60019;BME280;45870;42.528;26.740;2022-11-12T10:08:39;101177.50;;;16.78;56.09
60019;BME280;45870;42.528;26.740;2022-11-12T10:14:07;101172.69;;;17.20;54.53
60019;BME280;45870;42.528;26.740;2022-11-12T10:16:48;101178.88;;;17.56;54.08
60019;BME280;45870;42.528;26.740;2022-11-12T10:22:13;101188.03;;;16.52;55.85
60019;BME280;45870;42.528;26.740;2022-11-12T10:24:43;101192.66;;;16.51;56.51
60019;BME280;45870;42.528;26.740;2022-11-12T10:27:18;101200.88;;;16.74;55.46
60019;BME280;45870;42.528;26.740;2022-11-12T10:30:03;101200.16;;;16.56;55.54
60019;BME280;45870;42.528;26.740;2022-11-12T10:32:29;101193.97;;;16.83;55.19
60019;BME280;45870;42.528;26.740;2022-11-12T10:34:55;101199.44;;;16.95;55.09
60019;BME280;45870;42.528;26.740;2022-11-12T10:39:58;101200.75;;;17.32;53.86
60019;BME280;45870;42.528;26.740;2022-11-12T10:42:24;101129.88;;;16.69;54.59
60019;BME280;45870;42.528;26.740;2022-11-12T10:44:49;101187.31;;;17.82;52.89
60019;BME280;45870;42.528;26.740;2022-11-12T10:47:33;101159.53;;;17.45;53.04
60019;BME280;45870;42.528;26.740;2022-11-12T10:53:04;101151.09;;;17.19;53.82
60019;BME280;45870;42.528;26.740;2022-11-12T10:55:35;101190.47;;;17.63;53.24
60019;BME280;45870;42.528;26.740;2022-11-12T11:00:30;101189.41;;;18.09;51.99
60019;BME280;45870;42.528;26.740;2022-11-12T11:02:56;101171.31;;;17.91;52.61
60019;BME280;45870;42.528;26.740;2022-11-12T11:05:35;101179.31;;;17.53;52.95
60019;BME280;45870;42.528;26.740;2022-11-12T11:08:03;101158.38;;;17.41;52.79
60019;BME280;45870;42.528;26.740;2022-11-12T11:10:31;101179.63;;;17.39;53.56
60019;BME280;45870;42.528;26.740;2022-11-12T11:13:18;101186.38;;;17.48;53.28
60019;BME280;45870;42.528;26.740;2022-11-12T11:16:00;101176.63;;;17.81;52.82
60019;BME280;45870;42.528;26.740;2022-11-12T11:18:28;101166.44;;;17.76;53.13
60019;BME280;45870;42.528;26.740;2022-11-12T11:37:29;101156.38;;;18.43;52.58
60019;BME280;45870;42.528;26.740;2022-11-12T11:39:59;101148.72;;;17.79;52.46
60019;BME280;45870;42.528;26.740;2022-11-12T11:51:31;101145.03;;;18.52;51.00
60019;BME280;45870;42.528;26.740;2022-11-12T11:57:11;101139.16;;;17.93;52.14
60019;BME280;45870;42.528;26.740;2022-11-12T12:00:18;101131.78;;;18.10;51.68
60019;BME280;45870;42.528;26.740;2022-11-12T12:03:17;101147.66;;;17.80;52.13
60019;BME280;45870;42.528;26.740;2022-11-12T12:08:50;101141.28;;;17.91;51.61
60019;BME280;45870;42.528;26.740;2022-11-12T12:11:35;101105.28;;;17.49;51.88
60019;BME280;45870;42.528;26.740;2022-11-12T12:17:10;101140.44;;;18.40;50.66
60019;BME280;45870;42.528;26.740;2022-11-12T12:19:55;101153.06;;;18.08;50.34
60019;BME280;45870;42.528;26.740;2022-11-12T12:22:29;101110.41;;;17.45;52.16
60019;BME280;45870;42.528;26.740;2022-11-12T12:27:55;101151.97;;;18.09;50.49
60019;BME280;45870;42.528;26.740;2022-11-12T12:30:24;101098.63;;;17.57;51.09
60019;BME280;45870;42.528;26.740;2022-11-12T12:40:46;101143.38;;;18.17;51.24
60019;BME280;45870;42.528;26.740;2022-11-12T12:43:34;101163.81;;;17.98;51.65
60019;BME280;45870;42.528;26.740;2022-11-12T12:46:03;101096.13;;;18.55;50.18
60019;BME280;45870;42.528;26.740;2022-11-12T12:48:34;101150.81;;;18.55;50.67
60019;BME280;45870;42.528;26.740;2022-11-12T12:51:01;101155.88;;;18.63;51.22
60019;BME280;45870;42.528;26.740;2022-11-12T12:55:54;101118.88;;;17.32;51.72
60019;BME280;45870;42.528;26.740;2022-11-12T12:58:24;101150.19;;;17.41;52.94
60019;BME280;45870;42.528;26.740;2022-11-12T13:00:56;101148.22;;;17.82;51.99
60019;BME280;45870;42.528;26.740;2022-11-12T13:06:15;101151.47;;;17.95;52.28
60019;BME280;45870;42.528;26.740;2022-11-12T13:08:50;101088.88;;;17.77;50.85
60019;BME280;45870;42.528;26.740;2022-11-12T13:25:01;101139.31;;;17.30;53.29
60019;BME280;45870;42.528;26.740;2022-11-12T13:48:59;101138.97;;;17.83;51.38
60019;BME280;45870;42.528;26.740;2022-11-12T13:54:24;101127.44;;;17.81;51.54
60019;BME280;45870;42.528;26.740;2022-11-12T13:56:50;101141.84;;;17.20;53.81
60019;BME280;45870;42.528;26.740;2022-11-12T13:59:18;101060.03;;;16.68;53.49
60019;BME280;45870;42.528;26.740;2022-11-12T14:01:44;101143.03;;;17.24;53.79
60019;BME280;45870;42.528;26.740;2022-11-12T14:04:12;101043.34;;;16.93;52.97
60019;BME280;45870;42.528;26.740;2022-11-12T14:15:22;101081.25;;;16.55;55.22
60019;BME280;45870;42.528;26.740;2022-11-12T14:17:59;101123.13;;;17.12;54.01
60019;BME280;45870;42.528;26.740;2022-11-12T14:20:32;101131.59;;;16.98;54.76
60019;BME280;45870;42.528;26.740;2022-11-12T14:23:15;101137.03;;;16.98;54.26
60019;BME280;45870;42.528;26.740;2022-11-12T14:25:49;101141.34;;;16.83;55.01
60019;BME280;45870;42.528;26.740;2022-11-12T14:28:35;101140.19;;;16.56;55.65
60019;BME280;45870;42.528;26.740;2022-11-12T14:31:03;101020.41;;;15.68;55.16
60019;BME280;45870;42.528;26.740;2022-11-12T14:33:36;101140.63;;;16.53;55.72
60019;BME280;45870;42.528;26.740;2022-11-12T14:36:09;101147.63;;;16.83;54.50
60019;BME280;45870;42.528;26.740;2022-11-12T14:38:44;101155.22;;;16.70;54.45
60019;BME280;45870;42.528;26.740;2022-11-12T14:41:28;101155.47;;;16.68;54.76
60019;BME280;45870;42.528;26.740;2022-11-12T14:44:00;101143.50;;;16.81;54.99